Salem, OR (97301)

3:41 PM PST on February 14, 2016 (GMT -0800)
Center & Cordon NE | | Change Station
CLOSE
Current Station
Personal Weather Station
Location: Salem, OR
Elevation: 210 ft
Nearby Weather Stations

Elev 210 ft 44.94 °N, 122.96 °W | Updated 0 second ago

Overcast
Overcast
56.6 °F
Feels Like 56.6 °F
N
7.8
Wind Variable Wind from SW
Gusts 16.1 mph

Today
High -- | Low -- °F
--% Chance of Precip.
Yesterday
High -- | Low -- °F
Precip. -- in
Pressure 30.28 in
Visibility 10.0 miles
Clouds Mostly Cloudy 1200 ft
Mostly Cloudy 2200 ft
Overcast 6000 ft
Dew Point 54 °F
Humidity 91%
Rainfall 0.22 in
Snow Depth Not available.
7:14 AM 5:38 PM
Waxing Crescent, 46% visible
METAR KSLE 142256Z 18013KT 10SM BKN012 BKN022 OVC060 14/12 A3027 RMK AO2 RAB00E24 SLP252 P0000 T01390117
Pressure 30.28 in
Visibility 10.0 miles
Clouds Mostly Cloudy 1200 ft
Mostly Cloudy 2200 ft
Overcast 6000 ft
Dew Point 54 °F
Humidity 91%
Rainfall 0.22 in
Snow Depth Not available.
7:14 AM 5:38 PM
Waxing Crescent, 46% visible
METAR KSLE 142256Z 18013KT 10SM BKN012 BKN022 OVC060 14/12 A3027 RMK AO2 RAB00E24 SLP252 P0000 T01390117

10-Day Weather Forecast

Almanac

Astronomy

Feb. 14, 2016 Rise Set
Actual Time
Civil Twilight
Nautical Twilight
Astronomical Twilight
Moon
Length of Visible Light
Length of Day
Tomorrow will be .
, % of the Moon is Illuminated

Today's Extremes

State Highs State Lows

Community

WunderPhotos

Upload Photos

1,892,929 photos uploaded!

WunderBlog® & News

Nearby

Air Quality

  Air Quality AQ Index Pollutant
Not available.

Snow Depth

Station Depth Elevation

Earthquake Activity

City Distance Mag. Time & Date
Minimum magnitude displayed is 2.5.

Coastal Water Temperatures

Place Temperature

Stations

Nearby Weather Stations

Station Location Temp. Windchill Dew Point Humidity Wind Precip. Elev Updated Type
                   

Watches & Warnings

There are currently no watches in effect.